Terminal Aerodrome Forecast
Issued by NWS Green Bay, WI

Home | Current Version | Previous Version | Text Only | Print | Product List | Glossary Off
Versions: 1 2 3 4 5 6 7 8 9 10 11 12 13 14 15 16 17 18 19 20 21 22 23 24

000
FTUS43 KGRB 301731
TAFGRB
TAF
KGRB 301731Z 3018/3118 VRB03KT P6SM SCT050 BKN250
     FM302000 29007KT P6SM SCT050 BKN200
     FM310100 01010G16KT P6SM SCT020 BKN040
      TEMPO 3101/3105 BKN020
     FM310500 02011G16KT P6SM SCT040 SCT250
     FM310800 36005KT P6SM SKC
     FM311500 36009KT P6SM FEW040=

USA.gov is the U.S. government's official web portal to all federal, state and local government web resources and services.